Tropical Cyclones
[Index]
Main Index Home Page Stock Weather Photos Extreme Storms Discussion Storm News and Storm Chasing Reports Tropical Cyclones / Hurricanes / Typhoons Weather Data and Links Wild Fires / Bushfires Weather Observation Techniques Weather Picture Catalogue Tornado Pictures and Reports Stock Video Footage and DVDs for sale
Season 2012-2013 Tropical Cyclone JAMALA Track Map
Season 2012-2013 Summaries: [BoM-AU] [JTWC-AU] [JTWC-SIO] [JTWC-SPAC] [JTWC-SH]
<<- Previous TC | JTWC 2012-2013 Season | Next TC ->>

click for intensity scale information  Lat/long Grid: Show Hide

 Date Labels: Show Hide

Joint Typhoon Warning Centre Cyclone Data

Name: JAMALA

07 May 2013 18:00 UTC to 15 May 2013 00:00 UTC

    date/time    lat    long     hPa   cat  kts
2013-05-07 18    5.9    84.2    1007         20          
2013-05-08 00    5.8    84.5    1004         25          
2013-05-08 06    5.8    84.8    1004         25          
2013-05-08 12    5.9    85.1    1000         30          
2013-05-08 18    6.2    85.2     996         35          
2013-05-09 00    6.6    85.3     993    1    40          
2013-05-09 06    7.0    85.6     993    1    40          
2013-05-09 12    7.5    85.9     993    1    40          
2013-05-09 18    8.0    85.8     989    1    45          
2013-05-10 00    8.3    86.1     989    1    45          
2013-05-10 06    8.2    86.2     989    1    45          
2013-05-10 12    8.7    86.4     996         35          
2013-05-10 18    9.4    86.6     996         35          
2013-05-11 00   10.0    87.0     996         35          
2013-05-11 06   10.5    87.3     996         35          
2013-05-11 12   10.5    87.7    1000         30          
2013-05-11 18   10.5    88.2    1004         25          
2013-05-12 00   10.6    88.7    1004         25          
2013-05-12 06   10.6    88.2    1004         25          
2013-05-12 12   10.7    88.0    1004         25          
2013-05-12 18   10.7    87.4    1004         25          
2013-05-13 00   10.3    86.8    1004         25          
2013-05-13 06    9.9    85.8    1004         25          
2013-05-13 12    9.4    84.8    1004         25          
2013-05-13 18    9.1    84.1    1004         25          
2013-05-14 00    8.8    83.5    1004         25          
2013-05-14 06    8.7    82.8    1004         25          
2013-05-14 12    8.4    82.1    1004         25          
2013-05-14 18    8.4    81.0    1007         20          
2013-05-15 00    7.9    80.2    1007         20          
Winds are 1-min average.

Tropical cyclone tracks developed by Michael Bath using data from the Joint Typhoon Warning Centre Best Tracks and Google Maps.


[Australian Severe Weather index] [Copyright Notice] [Email Contacts] [Search This Site] [Privacy Policy]
Document: tropical_cyclone_jamala.htm Updated: 28 June 2017